sensor_id;sensor_type;location;lat;lon;timestamp;P1;durP1;ratioP1;P2;durP2;ratioP2
2928;SDS011;1474;51.460;7.150;2024-02-28T00:00:11;30.38;;;13.43;;
2928;SDS011;1474;51.460;7.150;2024-02-28T00:02:56;32.75;;;17.92;;
2928;SDS011;1474;51.460;7.150;2024-02-28T00:05:40;30.77;;;15.80;;
2928;SDS011;1474;51.460;7.150;2024-02-28T00:08:25;31.95;;;14.63;;
2928;SDS011;1474;51.460;7.150;2024-02-28T00:11:10;31.10;;;16.35;;
2928;SDS011;1474;51.460;7.150;2024-02-28T00:13:54;25.58;;;15.27;;
2928;SDS011;1474;51.460;7.150;2024-02-28T00:16:43;29.25;;;13.93;;
2928;SDS011;1474;51.460;7.150;2024-02-28T00:19:27;24.85;;;12.93;;
2928;SDS011;1474;51.460;7.150;2024-02-28T00:22:12;22.75;;;11.75;;
2928;SDS011;1474;51.460;7.150;2024-02-28T00:24:57;23.25;;;11.50;;
2928;SDS011;1474;51.460;7.150;2024-02-28T00:27:41;25.15;;;12.65;;
2928;SDS011;1474;51.460;7.150;2024-02-28T00:30:26;25.63;;;12.38;;
2928;SDS011;1474;51.460;7.150;2024-02-28T00:33:12;22.63;;;10.85;;
2928;SDS011;1474;51.460;7.150;2024-02-28T00:35:56;28.27;;;11.82;;
2928;SDS011;1474;51.460;7.150;2024-02-28T00:38:41;23.20;;;11.55;;
2928;SDS011;1474;51.460;7.150;2024-02-28T00:41:25;22.40;;;11.63;;
2928;SDS011;1474;51.460;7.150;2024-02-28T00:44:10;25.17;;;12.65;;
2928;SDS011;1474;51.460;7.150;2024-02-28T00:46:55;25.95;;;12.98;;
2928;SDS011;1474;51.460;7.150;2024-02-28T00:49:40;24.45;;;13.40;;
2928;SDS011;1474;51.460;7.150;2024-02-28T00:52:25;27.30;;;13.25;;
2928;SDS011;1474;51.460;7.150;2024-02-28T00:55:09;26.42;;;12.85;;
2928;SDS011;1474;51.460;7.150;2024-02-28T00:57:54;23.90;;;11.55;;
2928;SDS011;1474;51.460;7.150;2024-02-28T01:00:38;26.85;;;12.35;;
2928;SDS011;1474;51.460;7.150;2024-02-28T01:03:23;21.48;;;10.82;;
2928;SDS011;1474;51.460;7.150;2024-02-28T01:06:08;21.77;;;10.25;;
2928;SDS011;1474;51.460;7.150;2024-02-28T01:08:53;24.70;;;12.60;;
2928;SDS011;1474;51.460;7.150;2024-02-28T01:11:37;23.10;;;11.18;;
2928;SDS011;1474;51.460;7.150;2024-02-28T01:14:22;21.23;;;10.73;;
2928;SDS011;1474;51.460;7.150;2024-02-28T01:17:06;22.00;;;11.90;;
2928;SDS011;1474;51.460;7.150;2024-02-28T01:19:51;22.13;;;12.35;;
2928;SDS011;1474;51.460;7.150;2024-02-28T01:22:35;20.13;;;10.88;;
2928;SDS011;1474;51.460;7.150;2024-02-28T01:25:20;20.33;;;10.27;;
2928;SDS011;1474;51.460;7.150;2024-02-28T01:28:04;25.60;;;12.20;;
2928;SDS011;1474;51.460;7.150;2024-02-28T01:30:50;22.17;;;10.38;;
2928;SDS011;1474;51.460;7.150;2024-02-28T01:33:34;22.85;;;11.02;;
2928;SDS011;1474;51.460;7.150;2024-02-28T01:36:19;18.83;;;11.23;;
2928;SDS011;1474;51.460;7.150;2024-02-28T01:39:03;21.45;;;10.40;;
2928;SDS011;1474;51.460;7.150;2024-02-28T01:41:54;22.58;;;12.00;;
2928;SDS011;1474;51.460;7.150;2024-02-28T01:44:42;22.45;;;11.25;;
2928;SDS011;1474;51.460;7.150;2024-02-28T01:47:28;16.05;;;8.95;;
2928;SDS011;1474;51.460;7.150;2024-02-28T01:50:12;18.40;;;10.05;;
2928;SDS011;1474;51.460;7.150;2024-02-28T01:52:57;18.60;;;9.93;;
2928;SDS011;1474;51.460;7.150;2024-02-28T01:55:42;18.60;;;10.68;;
2928;SDS011;1474;51.460;7.150;2024-02-28T01:58:27;21.38;;;10.40;;
2928;SDS011;1474;51.460;7.150;2024-02-28T02:01:12;23.10;;;11.23;;
2928;SDS011;1474;51.460;7.150;2024-02-28T02:03:58;21.02;;;10.60;;
2928;SDS011;1474;51.460;7.150;2024-02-28T02:06:43;22.25;;;10.75;;
2928;SDS011;1474;51.460;7.150;2024-02-28T02:09:29;22.10;;;11.55;;
2928;SDS011;1474;51.460;7.150;2024-02-28T02:12:13;29.55;;;12.60;;
2928;SDS011;1474;51.460;7.150;2024-02-28T02:14:58;28.83;;;11.90;;
2928;SDS011;1474;51.460;7.150;2024-02-28T02:17:42;25.10;;;11.35;;
2928;SDS011;1474;51.460;7.150;2024-02-28T02:20:28;24.27;;;10.95;;
2928;SDS011;1474;51.460;7.150;2024-02-28T02:23:14;21.63;;;12.25;;
2928;SDS011;1474;51.460;7.150;2024-02-28T02:25:59;27.08;;;12.82;;
2928;SDS011;1474;51.460;7.150;2024-02-28T02:28:43;27.73;;;12.77;;
2928;SDS011;1474;51.460;7.150;2024-02-28T02:31:29;22.90;;;13.15;;
2928;SDS011;1474;51.460;7.150;2024-02-28T02:34:14;24.67;;;12.45;;
2928;SDS011;1474;51.460;7.150;2024-02-28T02:36:58;29.20;;;12.27;;
2928;SDS011;1474;51.460;7.150;2024-02-28T02:39:43;27.50;;;13.45;;
2928;SDS011;1474;51.460;7.150;2024-02-28T02:42:28;32.05;;;13.85;;
2928;SDS011;1474;51.460;7.150;2024-02-28T02:45:12;28.70;;;16.17;;
2928;SDS011;1474;51.460;7.150;2024-02-28T02:47:57;34.90;;;16.20;;
2928;SDS011;1474;51.460;7.150;2024-02-28T02:50:41;34.95;;;16.35;;
2928;SDS011;1474;51.460;7.150;2024-02-28T02:53:26;36.58;;;14.77;;
2928;SDS011;1474;51.460;7.150;2024-02-28T02:56:10;34.60;;;14.50;;
2928;SDS011;1474;51.460;7.150;2024-02-28T02:58:55;40.38;;;16.90;;
2928;SDS011;1474;51.460;7.150;2024-02-28T03:01:40;38.92;;;16.63;;
2928;SDS011;1474;51.460;7.150;2024-02-28T03:04:24;44.53;;;17.70;;
2928;SDS011;1474;51.460;7.150;2024-02-28T03:07:09;39.50;;;16.90;;
2928;SDS011;1474;51.460;7.150;2024-02-28T03:09:53;43.53;;;17.42;;
2928;SDS011;1474;51.460;7.150;2024-02-28T03:12:38;35.60;;;17.33;;
2928;SDS011;1474;51.460;7.150;2024-02-28T03:15:23;37.38;;;16.33;;
2928;SDS011;1474;51.460;7.150;2024-02-28T03:18:07;37.38;;;17.05;;
2928;SDS011;1474;51.460;7.150;2024-02-28T03:20:52;46.20;;;18.92;;
2928;SDS011;1474;51.460;7.150;2024-02-28T03:23:37;45.67;;;17.73;;
2928;SDS011;1474;51.460;7.150;2024-02-28T03:26:22;38.85;;;17.52;;
2928;SDS011;1474;51.460;7.150;2024-02-28T03:29:06;43.70;;;19.15;;
2928;SDS011;1474;51.460;7.150;2024-02-28T03:31:51;42.95;;;17.80;;
2928;SDS011;1474;51.460;7.150;2024-02-28T03:34:35;38.53;;;17.40;;
2928;SDS011;1474;51.460;7.150;2024-02-28T03:37:20;49.67;;;18.60;;
2928;SDS011;1474;51.460;7.150;2024-02-28T03:40:05;50.35;;;17.90;;
2928;SDS011;1474;51.460;7.150;2024-02-28T03:42:50;42.83;;;18.38;;
2928;SDS011;1474;51.460;7.150;2024-02-28T03:45:38;53.58;;;18.17;;
2928;SDS011;1474;51.460;7.150;2024-02-28T03:48:23;42.15;;;16.05;;
2928;SDS011;1474;51.460;7.150;2024-02-28T03:51:08;47.47;;;18.42;;
2928;SDS011;1474;51.460;7.150;2024-02-28T03:53:52;47.80;;;19.55;;
2928;SDS011;1474;51.460;7.150;2024-02-28T03:56:37;47.30;;;19.63;;
2928;SDS011;1474;51.460;7.150;2024-02-28T03:59:22;45.22;;;19.65;;
2928;SDS011;1474;51.460;7.150;2024-02-28T04:02:06;55.55;;;21.17;;
2928;SDS011;1474;51.460;7.150;2024-02-28T04:04:51;54.17;;;21.42;;
2928;SDS011;1474;51.460;7.150;2024-02-28T04:07:35;48.63;;;20.92;;
2928;SDS011;1474;51.460;7.150;2024-02-28T04:10:19;52.45;;;20.27;;
2928;SDS011;1474;51.460;7.150;2024-02-28T04:13:04;47.78;;;18.60;;
2928;SDS011;1474;51.460;7.150;2024-02-28T04:15:49;56.20;;;20.73;;
2928;SDS011;1474;51.460;7.150;2024-02-28T04:18:33;41.17;;;19.65;;
2928;SDS011;1474;51.460;7.150;2024-02-28T04:21:18;53.70;;;22.10;;
2928;SDS011;1474;51.460;7.150;2024-02-28T04:24:03;48.10;;;18.08;;
2928;SDS011;1474;51.460;7.150;2024-02-28T04:26:48;48.53;;;20.83;;
2928;SDS011;1474;51.460;7.150;2024-02-28T04:29:32;51.58;;;20.00;;
2928;SDS011;1474;51.460;7.150;2024-02-28T04:32:17;58.00;;;21.83;;
2928;SDS011;1474;51.460;7.150;2024-02-28T04:35:01;51.40;;;20.85;;
2928;SDS011;1474;51.460;7.150;2024-02-28T04:37:47;59.95;;;22.65;;
2928;SDS011;1474;51.460;7.150;2024-02-28T04:40:31;53.92;;;22.30;;
2928;SDS011;1474;51.460;7.150;2024-02-28T04:43:16;50.15;;;21.15;;
2928;SDS011;1474;51.460;7.150;2024-02-28T04:46:01;53.13;;;21.10;;
2928;SDS011;1474;51.460;7.150;2024-02-28T04:48:46;52.78;;;21.65;;
2928;SDS011;1474;51.460;7.150;2024-02-28T04:51:31;54.42;;;20.40;;
2928;SDS011;1474;51.460;7.150;2024-02-28T04:54:16;55.40;;;20.95;;
2928;SDS011;1474;51.460;7.150;2024-02-28T04:57:02;52.05;;;22.08;;
2928;SDS011;1474;51.460;7.150;2024-02-28T04:59:47;46.83;;;20.75;;
2928;SDS011;1474;51.460;7.150;2024-02-28T05:02:31;53.28;;;21.63;;
2928;SDS011;1474;51.460;7.150;2024-02-28T05:05:16;51.33;;;21.67;;
2928;SDS011;1474;51.460;7.150;2024-02-28T05:08:00;55.78;;;21.60;;
2928;SDS011;1474;51.460;7.150;2024-02-28T05:10:45;54.97;;;22.35;;
2928;SDS011;1474;51.460;7.150;2024-02-28T05:13:30;57.25;;;23.45;;
2928;SDS011;1474;51.460;7.150;2024-02-28T05:16:15;48.15;;;20.10;;
2928;SDS011;1474;51.460;7.150;2024-02-28T05:18:59;60.10;;;24.05;;
2928;SDS011;1474;51.460;7.150;2024-02-28T05:21:44;60.50;;;22.52;;
2928;SDS011;1474;51.460;7.150;2024-02-28T05:24:29;57.20;;;22.25;;
2928;SDS011;1474;51.460;7.150;2024-02-28T05:27:13;57.88;;;22.67;;
2928;SDS011;1474;51.460;7.150;2024-02-28T05:30:01;53.47;;;22.20;;
2928;SDS011;1474;51.460;7.150;2024-02-28T05:32:49;51.95;;;21.90;;
2928;SDS011;1474;51.460;7.150;2024-02-28T05:35:34;47.13;;;19.55;;
2928;SDS011;1474;51.460;7.150;2024-02-28T05:38:18;57.20;;;22.35;;
2928;SDS011;1474;51.460;7.150;2024-02-28T05:41:03;56.60;;;23.58;;
2928;SDS011;1474;51.460;7.150;2024-02-28T05:43:47;48.90;;;21.80;;
2928;SDS011;1474;51.460;7.150;2024-02-28T05:46:32;59.35;;;21.05;;
2928;SDS011;1474;51.460;7.150;2024-02-28T05:49:17;50.13;;;21.90;;
2928;SDS011;1474;51.460;7.150;2024-02-28T05:52:02;50.65;;;22.27;;
2928;SDS011;1474;51.460;7.150;2024-02-28T05:54:47;56.88;;;20.48;;
2928;SDS011;1474;51.460;7.150;2024-02-28T05:57:32;51.00;;;21.42;;
2928;SDS011;1474;51.460;7.150;2024-02-28T06:00:16;57.95;;;20.67;;
2928;SDS011;1474;51.460;7.150;2024-02-28T06:03:01;59.40;;;22.35;;
2928;SDS011;1474;51.460;7.150;2024-02-28T06:05:27;52.38;;;22.33;;
2928;SDS011;1474;51.460;7.150;2024-02-28T06:07:53;56.47;;;21.55;;
2928;SDS011;1474;51.460;7.150;2024-02-28T06:10:19;58.28;;;22.58;;
2928;SDS011;1474;51.460;7.150;2024-02-28T06:12:46;51.00;;;20.30;;
2928;SDS011;1474;51.460;7.150;2024-02-28T06:15:12;59.30;;;21.92;;
2928;SDS011;1474;51.460;7.150;2024-02-28T06:17:38;50.00;;;22.05;;
2928;SDS011;1474;51.460;7.150;2024-02-28T06:20:07;55.25;;;21.63;;
2928;SDS011;1474;51.460;7.150;2024-02-28T06:22:37;57.35;;;23.02;;
2928;SDS011;1474;51.460;7.150;2024-02-28T06:25:11;52.00;;;23.73;;
2928;SDS011;1474;51.460;7.150;2024-02-28T06:27:45;53.63;;;23.13;;
2928;SDS011;1474;51.460;7.150;2024-02-28T06:30:14;54.57;;;21.80;;
2928;SDS011;1474;51.460;7.150;2024-02-28T06:32:42;56.38;;;22.77;;
2928;SDS011;1474;51.460;7.150;2024-02-28T06:35:11;61.90;;;23.73;;
2928;SDS011;1474;51.460;7.150;2024-02-28T06:37:37;57.80;;;23.67;;
2928;SDS011;1474;51.460;7.150;2024-02-28T06:40:06;55.05;;;21.88;;
2928;SDS011;1474;51.460;7.150;2024-02-28T06:42:38;59.30;;;22.52;;
2928;SDS011;1474;51.460;7.150;2024-02-28T06:45:07;62.55;;;23.13;;
2928;SDS011;1474;51.460;7.150;2024-02-28T06:47:34;61.22;;;23.85;;
2928;SDS011;1474;51.460;7.150;2024-02-28T06:50:02;59.03;;;22.33;;
2928;SDS011;1474;51.460;7.150;2024-02-28T06:52:31;66.63;;;24.45;;
2928;SDS011;1474;51.460;7.150;2024-02-28T06:54:59;65.50;;;24.77;;
2928;SDS011;1474;51.460;7.150;2024-02-28T06:57:28;61.03;;;24.65;;
2928;SDS011;1474;51.460;7.150;2024-02-28T06:59:54;65.90;;;25.67;;
2928;SDS011;1474;51.460;7.150;2024-02-28T07:02:20;51.92;;;21.67;;
2928;SDS011;1474;51.460;7.150;2024-02-28T07:04:46;56.42;;;22.13;;
2928;SDS011;1474;51.460;7.150;2024-02-28T07:07:12;65.75;;;25.40;;
2928;SDS011;1474;51.460;7.150;2024-02-28T07:09:38;58.47;;;23.08;;
2928;SDS011;1474;51.460;7.150;2024-02-28T07:12:05;57.33;;;23.15;;
2928;SDS011;1474;51.460;7.150;2024-02-28T07:14:31;60.42;;;21.90;;
2928;SDS011;1474;51.460;7.150;2024-02-28T07:16:57;54.47;;;24.38;;
2928;SDS011;1474;51.460;7.150;2024-02-28T07:19:23;53.38;;;24.75;;
2928;SDS011;1474;51.460;7.150;2024-02-28T07:21:49;54.85;;;21.90;;
2928;SDS011;1474;51.460;7.150;2024-02-28T07:24:15;61.33;;;22.55;;
2928;SDS011;1474;51.460;7.150;2024-02-28T07:26:41;52.03;;;22.85;;
2928;SDS011;1474;51.460;7.150;2024-02-28T07:29:07;51.38;;;21.08;;
2928;SDS011;1474;51.460;7.150;2024-02-28T07:31:33;55.00;;;22.75;;
2928;SDS011;1474;51.460;7.150;2024-02-28T07:33:59;52.47;;;21.13;;
2928;SDS011;1474;51.460;7.150;2024-02-28T07:36:25;58.60;;;21.85;;
2928;SDS011;1474;51.460;7.150;2024-02-28T07:38:51;60.55;;;21.45;;
2928;SDS011;1474;51.460;7.150;2024-02-28T07:41:18;63.28;;;23.83;;
2928;SDS011;1474;51.460;7.150;2024-02-28T07:43:44;55.70;;;24.02;;
2928;SDS011;1474;51.460;7.150;2024-02-28T07:46:13;65.65;;;25.23;;
2928;SDS011;1474;51.460;7.150;2024-02-28T07:48:39;57.90;;;23.13;;
2928;SDS011;1474;51.460;7.150;2024-02-28T07:51:05;61.22;;;22.02;;
2928;SDS011;1474;51.460;7.150;2024-02-28T07:53:31;62.67;;;23.15;;
2928;SDS011;1474;51.460;7.150;2024-02-28T07:55:57;54.60;;;21.90;;
2928;SDS011;1474;51.460;7.150;2024-02-28T07:58:23;51.90;;;20.38;;
2928;SDS011;1474;51.460;7.150;2024-02-28T08:00:50;52.30;;;21.30;;
2928;SDS011;1474;51.460;7.150;2024-02-28T08:03:17;54.30;;;21.30;;
2928;SDS011;1474;51.460;7.150;2024-02-28T08:05:43;51.08;;;20.38;;
2928;SDS011;1474;51.460;7.150;2024-02-28T08:08:09;52.95;;;21.73;;
2928;SDS011;1474;51.460;7.150;2024-02-28T08:10:37;52.45;;;19.48;;
2928;SDS011;1474;51.460;7.150;2024-02-28T08:13:06;48.58;;;19.55;;
2928;SDS011;1474;51.460;7.150;2024-02-28T08:15:32;46.85;;;19.27;;
2928;SDS011;1474;51.460;7.150;2024-02-28T08:17:58;54.17;;;20.80;;
2928;SDS011;1474;51.460;7.150;2024-02-28T08:20:24;43.60;;;18.10;;
2928;SDS011;1474;51.460;7.150;2024-02-28T08:22:51;54.80;;;20.90;;
2928;SDS011;1474;51.460;7.150;2024-02-28T08:25:18;52.47;;;20.60;;
2928;SDS011;1474;51.460;7.150;2024-02-28T08:27:44;47.75;;;21.50;;
2928;SDS011;1474;51.460;7.150;2024-02-28T08:30:10;61.08;;;22.65;;
2928;SDS011;1474;51.460;7.150;2024-02-28T08:32:36;58.08;;;21.73;;
2928;SDS011;1474;51.460;7.150;2024-02-28T08:35:03;54.45;;;20.45;;
2928;SDS011;1474;51.460;7.150;2024-02-28T08:37:29;48.85;;;21.27;;
2928;SDS011;1474;51.460;7.150;2024-02-28T08:39:55;47.47;;;21.17;;
2928;SDS011;1474;51.460;7.150;2024-02-28T08:42:25;57.63;;;23.27;;
2928;SDS011;1474;51.460;7.150;2024-02-28T08:44:54;52.95;;;21.65;;
2928;SDS011;1474;51.460;7.150;2024-02-28T08:47:23;61.25;;;24.27;;
2928;SDS011;1474;51.460;7.150;2024-02-28T08:49:50;62.40;;;24.05;;
2928;SDS011;1474;51.460;7.150;2024-02-28T08:52:16;51.53;;;23.60;;
2928;SDS011;1474;51.460;7.150;2024-02-28T08:54:42;62.17;;;24.55;;
2928;SDS011;1474;51.460;7.150;2024-02-28T08:57:08;53.42;;;21.27;;
2928;SDS011;1474;51.460;7.150;2024-02-28T08:59:34;47.83;;;21.30;;
2928;SDS011;1474;51.460;7.150;2024-02-28T09:02:00;48.95;;;20.17;;
2928;SDS011;1474;51.460;7.150;2024-02-28T09:04:26;50.25;;;21.40;;
2928;SDS011;1474;51.460;7.150;2024-02-28T09:06:54;43.53;;;19.83;;
2928;SDS011;1474;51.460;7.150;2024-02-28T09:09:21;52.47;;;22.42;;
2928;SDS011;1474;51.460;7.150;2024-02-28T09:11:47;51.05;;;20.25;;
2928;SDS011;1474;51.460;7.150;2024-02-28T09:14:13;46.45;;;21.83;;
2928;SDS011;1474;51.460;7.150;2024-02-28T09:16:39;48.17;;;20.27;;
2928;SDS011;1474;51.460;7.150;2024-02-28T09:19:05;50.53;;;22.30;;
2928;SDS011;1474;51.460;7.150;2024-02-28T09:21:31;44.97;;;21.60;;
2928;SDS011;1474;51.460;7.150;2024-02-28T09:23:57;46.58;;;20.55;;
2928;SDS011;1474;51.460;7.150;2024-02-28T09:26:23;50.20;;;20.60;;
2928;SDS011;1474;51.460;7.150;2024-02-28T09:28:49;44.20;;;19.65;;
2928;SDS011;1474;51.460;7.150;2024-02-28T09:31:15;48.53;;;22.17;;
2928;SDS011;1474;51.460;7.150;2024-02-28T09:33:41;44.42;;;20.40;;
2928;SDS011;1474;51.460;7.150;2024-02-28T09:36:07;49.85;;;21.05;;
2928;SDS011;1474;51.460;7.150;2024-02-28T09:38:33;43.50;;;19.88;;
2928;SDS011;1474;51.460;7.150;2024-02-28T09:41:00;54.47;;;21.50;;
2928;SDS011;1474;51.460;7.150;2024-02-28T09:43:29;45.22;;;21.05;;
2928;SDS011;1474;51.460;7.150;2024-02-28T09:46:14;47.50;;;19.37;;
2928;SDS011;1474;51.460;7.150;2024-02-28T09:48:40;44.50;;;19.20;;
2928;SDS011;1474;51.460;7.150;2024-02-28T09:51:06;45.33;;;19.83;;
2928;SDS011;1474;51.460;7.150;2024-02-28T09:53:35;42.72;;;21.45;;
2928;SDS011;1474;51.460;7.150;2024-02-28T09:56:01;46.95;;;19.15;;
2928;SDS011;1474;51.460;7.150;2024-02-28T09:58:30;40.05;;;17.48;;
2928;SDS011;1474;51.460;7.150;2024-02-28T10:00:58;37.00;;;16.25;;
2928;SDS011;1474;51.460;7.150;2024-02-28T10:03:24;35.28;;;16.67;;
2928;SDS011;1474;51.460;7.150;2024-02-28T10:05:51;39.80;;;17.52;;
2928;SDS011;1474;51.460;7.150;2024-02-28T10:08:17;39.47;;;17.17;;
2928;SDS011;1474;51.460;7.150;2024-02-28T10:10:46;38.67;;;16.65;;
2928;SDS011;1474;51.460;7.150;2024-02-28T10:13:13;37.83;;;16.90;;
2928;SDS011;1474;51.460;7.150;2024-02-28T10:15:39;40.30;;;17.90;;
2928;SDS011;1474;51.460;7.150;2024-02-28T10:18:05;40.67;;;16.63;;
2928;SDS011;1474;51.460;7.150;2024-02-28T10:20:31;40.55;;;18.10;;
2928;SDS011;1474;51.460;7.150;2024-02-28T10:22:57;37.80;;;17.77;;
2928;SDS011;1474;51.460;7.150;2024-02-28T10:25:23;36.60;;;17.85;;
2928;SDS011;1474;51.460;7.150;2024-02-28T10:27:51;38.00;;;16.73;;
2928;SDS011;1474;51.460;7.150;2024-02-28T10:30:18;37.50;;;17.67;;
2928;SDS011;1474;51.460;7.150;2024-02-28T10:32:48;48.20;;;20.30;;
2928;SDS011;1474;51.460;7.150;2024-02-28T10:35:15;41.72;;;19.45;;
2928;SDS011;1474;51.460;7.150;2024-02-28T10:37:43;41.90;;;18.13;;
2928;SDS011;1474;51.460;7.150;2024-02-28T10:40:10;35.58;;;17.20;;
2928;SDS011;1474;51.460;7.150;2024-02-28T10:42:37;39.35;;;17.20;;
2928;SDS011;1474;51.460;7.150;2024-02-28T10:45:03;37.55;;;16.48;;
2928;SDS011;1474;51.460;7.150;2024-02-28T10:47:30;31.90;;;14.77;;
2928;SDS011;1474;51.460;7.150;2024-02-28T10:49:56;35.78;;;16.75;;
2928;SDS011;1474;51.460;7.150;2024-02-28T10:52:22;34.78;;;16.45;;
2928;SDS011;1474;51.460;7.150;2024-02-28T10:54:52;36.47;;;17.15;;
2928;SDS011;1474;51.460;7.150;2024-02-28T10:57:24;32.53;;;15.50;;
2928;SDS011;1474;51.460;7.150;2024-02-28T10:59:50;29.63;;;13.93;;
2928;SDS011;1474;51.460;7.150;2024-02-28T11:02:17;31.42;;;15.75;;
2928;SDS011;1474;51.460;7.150;2024-02-28T11:04:43;32.00;;;15.57;;
2928;SDS011;1474;51.460;7.150;2024-02-28T11:07:09;30.42;;;14.68;;
2928;SDS011;1474;51.460;7.150;2024-02-28T11:09:35;32.13;;;15.77;;
2928;SDS011;1474;51.460;7.150;2024-02-28T11:12:03;30.70;;;14.60;;
2928;SDS011;1474;51.460;7.150;2024-02-28T11:14:30;36.25;;;16.45;;
2928;SDS011;1474;51.460;7.150;2024-02-28T11:17:00;30.60;;;14.35;;
2928;SDS011;1474;51.460;7.150;2024-02-28T11:19:27;32.03;;;15.27;;
2928;SDS011;1474;51.460;7.150;2024-02-28T11:21:54;30.45;;;15.40;;
2928;SDS011;1474;51.460;7.150;2024-02-28T11:24:23;33.85;;;16.50;;
2928;SDS011;1474;51.460;7.150;2024-02-28T11:26:52;31.90;;;15.45;;
2928;SDS011;1474;51.460;7.150;2024-02-28T11:29:25;30.15;;;15.23;;
2928;SDS011;1474;51.460;7.150;2024-02-28T11:31:53;28.70;;;14.07;;
2928;SDS011;1474;51.460;7.150;2024-02-28T11:34:19;26.75;;;13.02;;
2928;SDS011;1474;51.460;7.150;2024-02-28T11:36:48;31.50;;;15.55;;
2928;SDS011;1474;51.460;7.150;2024-02-28T11:39:15;31.92;;;15.40;;
2928;SDS011;1474;51.460;7.150;2024-02-28T11:41:41;26.88;;;14.23;;
2928;SDS011;1474;51.460;7.150;2024-02-28T11:44:07;24.75;;;12.90;;
2928;SDS011;1474;51.460;7.150;2024-02-28T11:46:33;28.90;;;14.57;;
2928;SDS011;1474;51.460;7.150;2024-02-28T11:49:01;26.25;;;13.02;;
2928;SDS011;1474;51.460;7.150;2024-02-28T11:51:27;28.98;;;14.55;;
2928;SDS011;1474;51.460;7.150;2024-02-28T11:53:54;29.63;;;14.75;;
2928;SDS011;1474;51.460;7.150;2024-02-28T11:56:20;26.08;;;12.73;;
2928;SDS011;1474;51.460;7.150;2024-02-28T11:58:50;25.63;;;12.52;;
2928;SDS011;1474;51.460;7.150;2024-02-28T12:01:16;26.10;;;14.03;;
2928;SDS011;1474;51.460;7.150;2024-02-28T12:03:44;28.52;;;14.00;;
2928;SDS011;1474;51.460;7.150;2024-02-28T12:06:13;25.65;;;12.55;;
2928;SDS011;1474;51.460;7.150;2024-02-28T12:08:39;26.00;;;14.38;;
2928;SDS011;1474;51.460;7.150;2024-02-28T12:11:06;26.08;;;14.82;;
2928;SDS011;1474;51.460;7.150;2024-02-28T12:13:33;23.20;;;12.45;;
2928;SDS011;1474;51.460;7.150;2024-02-28T12:16:00;25.92;;;13.15;;
2928;SDS011;1474;51.460;7.150;2024-02-28T12:18:26;25.60;;;12.88;;
2928;SDS011;1474;51.460;7.150;2024-02-28T12:20:53;26.58;;;13.90;;
2928;SDS011;1474;51.460;7.150;2024-02-28T12:23:19;22.33;;;12.93;;
2928;SDS011;1474;51.460;7.150;2024-02-28T12:25:45;24.35;;;12.07;;
2928;SDS011;1474;51.460;7.150;2024-02-28T12:28:11;25.10;;;13.93;;
2928;SDS011;1474;51.460;7.150;2024-02-28T12:30:41;19.25;;;11.18;;
2928;SDS011;1474;51.460;7.150;2024-02-28T12:33:07;23.17;;;12.10;;
2928;SDS011;1474;51.460;7.150;2024-02-28T12:35:33;24.55;;;12.43;;
2928;SDS011;1474;51.460;7.150;2024-02-28T12:38:00;25.48;;;12.95;;
2928;SDS011;1474;51.460;7.150;2024-02-28T12:40:26;22.65;;;12.18;;
2928;SDS011;1474;51.460;7.150;2024-02-28T12:42:52;21.10;;;11.68;;
2928;SDS011;1474;51.460;7.150;2024-02-28T12:45:18;23.48;;;11.93;;
2928;SDS011;1474;51.460;7.150;2024-02-28T12:47:44;24.75;;;11.57;;
2928;SDS011;1474;51.460;7.150;2024-02-28T12:50:09;21.83;;;10.93;;
2928;SDS011;1474;51.460;7.150;2024-02-28T12:52:36;21.25;;;11.90;;
2928;SDS011;1474;51.460;7.150;2024-02-28T12:55:02;22.33;;;12.15;;
2928;SDS011;1474;51.460;7.150;2024-02-28T12:57:28;21.30;;;11.75;;
2928;SDS011;1474;51.460;7.150;2024-02-28T12:59:54;23.70;;;12.43;;
2928;SDS011;1474;51.460;7.150;2024-02-28T13:02:21;23.95;;;12.23;;
2928;SDS011;1474;51.460;7.150;2024-02-28T13:04:47;22.95;;;11.07;;
2928;SDS011;1474;51.460;7.150;2024-02-28T13:07:14;21.75;;;10.70;;
2928;SDS011;1474;51.460;7.150;2024-02-28T13:09:41;20.17;;;9.38;;
2928;SDS011;1474;51.460;7.150;2024-02-28T13:12:07;20.70;;;10.68;;
2928;SDS011;1474;51.460;7.150;2024-02-28T13:14:33;18.23;;;9.70;;
2928;SDS011;1474;51.460;7.150;2024-02-28T13:17:00;21.38;;;10.43;;
2928;SDS011;1474;51.460;7.150;2024-02-28T13:19:26;19.30;;;11.52;;
2928;SDS011;1474;51.460;7.150;2024-02-28T13:21:52;21.45;;;11.10;;
2928;SDS011;1474;51.460;7.150;2024-02-28T13:24:18;22.83;;;11.10;;
2928;SDS011;1474;51.460;7.150;2024-02-28T13:26:44;19.48;;;11.05;;
2928;SDS011;1474;51.460;7.150;2024-02-28T13:29:10;21.85;;;11.50;;
2928;SDS011;1474;51.460;7.150;2024-02-28T13:31:36;21.73;;;11.27;;
2928;SDS011;1474;51.460;7.150;2024-02-28T13:34:02;19.88;;;10.98;;
2928;SDS011;1474;51.460;7.150;2024-02-28T13:36:28;23.15;;;11.82;;
2928;SDS011;1474;51.460;7.150;2024-02-28T13:38:57;18.77;;;11.57;;
2928;SDS011;1474;51.460;7.150;2024-02-28T13:41:23;23.02;;;12.23;;
2928;SDS011;1474;51.460;7.150;2024-02-28T13:43:49;21.73;;;10.93;;
2928;SDS011;1474;51.460;7.150;2024-02-28T13:46:15;19.80;;;11.13;;
2928;SDS011;1474;51.460;7.150;2024-02-28T13:48:41;23.60;;;11.07;;
2928;SDS011;1474;51.460;7.150;2024-02-28T13:51:07;18.85;;;10.65;;
2928;SDS011;1474;51.460;7.150;2024-02-28T13:53:33;20.63;;;11.10;;
2928;SDS011;1474;51.460;7.150;2024-02-28T13:55:59;18.60;;;10.90;;
2928;SDS011;1474;51.460;7.150;2024-02-28T13:58:26;19.20;;;11.15;;
2928;SDS011;1474;51.460;7.150;2024-02-28T14:00:52;18.48;;;9.95;;
2928;SDS011;1474;51.460;7.150;2024-02-28T14:03:18;17.98;;;9.75;;
2928;SDS011;1474;51.460;7.150;2024-02-28T14:05:44;18.52;;;10.82;;
2928;SDS011;1474;51.460;7.150;2024-02-28T14:08:10;21.48;;;11.60;;
2928;SDS011;1474;51.460;7.150;2024-02-28T14:10:37;18.60;;;9.98;;
2928;SDS011;1474;51.460;7.150;2024-02-28T14:13:04;18.38;;;10.10;;
2928;SDS011;1474;51.460;7.150;2024-02-28T14:15:30;21.08;;;10.35;;
2928;SDS011;1474;51.460;7.150;2024-02-28T14:17:56;18.88;;;10.55;;
2928;SDS011;1474;51.460;7.150;2024-02-28T14:20:22;19.85;;;10.43;;
2928;SDS011;1474;51.460;7.150;2024-02-28T14:22:48;19.52;;;11.25;;
2928;SDS011;1474;51.460;7.150;2024-02-28T14:25:15;22.25;;;11.15;;
2928;SDS011;1474;51.460;7.150;2024-02-28T14:27:43;20.52;;;10.60;;
2928;SDS011;1474;51.460;7.150;2024-02-28T14:30:09;18.88;;;11.38;;
2928;SDS011;1474;51.460;7.150;2024-02-28T14:32:36;20.20;;;11.68;;
2928;SDS011;1474;51.460;7.150;2024-02-28T14:35:02;22.67;;;12.02;;
2928;SDS011;1474;51.460;7.150;2024-02-28T14:37:29;19.77;;;11.30;;
2928;SDS011;1474;51.460;7.150;2024-02-28T14:39:55;20.85;;;10.30;;
2928;SDS011;1474;51.460;7.150;2024-02-28T14:42:21;21.25;;;11.73;;
2928;SDS011;1474;51.460;7.150;2024-02-28T14:44:48;21.23;;;11.75;;
2928;SDS011;1474;51.460;7.150;2024-02-28T14:47:14;21.40;;;11.05;;
2928;SDS011;1474;51.460;7.150;2024-02-28T14:49:40;19.92;;;10.75;;
2928;SDS011;1474;51.460;7.150;2024-02-28T14:52:06;21.38;;;11.93;;
2928;SDS011;1474;51.460;7.150;2024-02-28T14:54:32;18.75;;;11.13;;
2928;SDS011;1474;51.460;7.150;2024-02-28T14:56:58;20.95;;;11.25;;
2928;SDS011;1474;51.460;7.150;2024-02-28T14:59:23;23.95;;;11.77;;
2928;SDS011;1474;51.460;7.150;2024-02-28T15:01:50;19.20;;;11.15;;
2928;SDS011;1474;51.460;7.150;2024-02-28T15:04:16;18.90;;;10.27;;
2928;SDS011;1474;51.460;7.150;2024-02-28T15:06:42;19.20;;;10.93;;
2928;SDS011;1474;51.460;7.150;2024-02-28T15:09:08;19.00;;;9.88;;
2928;SDS011;1474;51.460;7.150;2024-02-28T15:11:34;16.27;;;9.43;;
2928;SDS011;1474;51.460;7.150;2024-02-28T15:14:00;22.23;;;11.35;;
2928;SDS011;1474;51.460;7.150;2024-02-28T15:16:26;21.75;;;11.05;;
2928;SDS011;1474;51.460;7.150;2024-02-28T15:18:52;20.52;;;10.82;;
2928;SDS011;1474;51.460;7.150;2024-02-28T15:21:18;21.52;;;11.38;;
2928;SDS011;1474;51.460;7.150;2024-02-28T15:23:44;21.52;;;11.07;;